sensor_id;sensor_type;location;lat;lon;timestamp;temperature;humidity
71563;DHT22;59391;52.504;13.438;2022-12-17T00:01:17;0.90;66.80
71563;DHT22;59391;52.504;13.438;2022-12-17T00:04:02;0.80;66.80
71563;DHT22;59391;52.504;13.438;2022-12-17T00:06:46;0.90;66.90
71563;DHT22;59391;52.504;13.438;2022-12-17T00:09:40;0.90;67.00
71563;DHT22;59391;52.504;13.438;2022-12-17T00:12:27;0.90;67.10
71563;DHT22;59391;52.504;13.438;2022-12-17T00:15:11;0.90;67.10
71563;DHT22;59391;52.504;13.438;2022-12-17T00:18:03;0.90;67.10
71563;DHT22;59391;52.504;13.438;2022-12-17T00:20:56;0.90;67.10
71563;DHT22;59391;52.504;13.438;2022-12-17T00:23:42;0.90;67.10
71563;DHT22;59391;52.504;13.438;2022-12-17T00:26:27;0.90;67.20
71563;DHT22;59391;52.504;13.438;2022-12-17T00:29:11;0.90;67.10
71563;DHT22;59391;52.504;13.438;2022-12-17T00:31:57;0.90;67.40
71563;DHT22;59391;52.504;13.438;2022-12-17T00:34:41;0.90;67.50
71563;DHT22;59391;52.504;13.438;2022-12-17T00:37:25;0.90;67.80
71563;DHT22;59391;52.504;13.438;2022-12-17T00:40:10;0.90;67.80
71563;DHT22;59391;52.504;13.438;2022-12-17T00:42:59;1.00;68.00
71563;DHT22;59391;52.504;13.438;2022-12-17T00:45:45;1.00;67.90
71563;DHT22;59391;52.504;13.438;2022-12-17T00:48:30;1.00;67.90
71563;DHT22;59391;52.504;13.438;2022-12-17T00:51:14;1.00;67.90
71563;DHT22;59391;52.504;13.438;2022-12-17T00:53:58;1.00;67.90
71563;DHT22;59391;52.504;13.438;2022-12-17T00:56:42;1.00;67.70
71563;DHT22;59391;52.504;13.438;2022-12-17T00:59:26;1.00;67.70
71563;DHT22;59391;52.504;13.438;2022-12-17T01:02:10;1.00;67.70
71563;DHT22;59391;52.504;13.438;2022-12-17T01:04:54;1.10;67.70
71563;DHT22;59391;52.504;13.438;2022-12-17T01:07:38;1.00;67.90
71563;DHT22;59391;52.504;13.438;2022-12-17T01:10:22;1.10;67.80
71563;DHT22;59391;52.504;13.438;2022-12-17T01:13:06;1.10;67.70
71563;DHT22;59391;52.504;13.438;2022-12-17T01:15:50;1.10;67.80
71563;DHT22;59391;52.504;13.438;2022-12-17T01:18:35;1.10;67.90
71563;DHT22;59391;52.504;13.438;2022-12-17T01:21:19;1.10;68.00
71563;DHT22;59391;52.504;13.438;2022-12-17T01:24:03;1.10;67.90
71563;DHT22;59391;52.504;13.438;2022-12-17T01:26:48;1.10;67.90
71563;DHT22;59391;52.504;13.438;2022-12-17T01:29:32;1.10;67.80
71563;DHT22;59391;52.504;13.438;2022-12-17T01:32:16;1.10;67.70
71563;DHT22;59391;52.504;13.438;2022-12-17T01:35:16;1.10;67.90
71563;DHT22;59391;52.504;13.438;2022-12-17T01:38:01;1.00;67.80
71563;DHT22;59391;52.504;13.438;2022-12-17T01:40:55;1.00;67.80
71563;DHT22;59391;52.504;13.438;2022-12-17T01:43:39;1.00;67.90
71563;DHT22;59391;52.504;13.438;2022-12-17T01:46:26;1.00;68.20
71563;DHT22;59391;52.504;13.438;2022-12-17T01:49:16;0.90;68.30
71563;DHT22;59391;52.504;13.438;2022-12-17T01:52:01;0.90;68.30
71563;DHT22;59391;52.504;13.438;2022-12-17T01:54:46;0.90;68.20
71563;DHT22;59391;52.504;13.438;2022-12-17T01:57:31;0.90;68.30
71563;DHT22;59391;52.504;13.438;2022-12-17T02:00:17;0.90;68.40
71563;DHT22;59391;52.504;13.438;2022-12-17T02:03:02;0.90;68.40
71563;DHT22;59391;52.504;13.438;2022-12-17T02:06:17;0.90;68.40
71563;DHT22;59391;52.504;13.438;2022-12-17T02:09:25;0.80;68.70
71563;DHT22;59391;52.504;13.438;2022-12-17T02:15:57;0.80;68.60
71563;DHT22;59391;52.504;13.438;2022-12-17T02:18:56;0.80;68.50
71563;DHT22;59391;52.504;13.438;2022-12-17T02:21:52;0.80;68.60
71563;DHT22;59391;52.504;13.438;2022-12-17T02:24:55;0.80;68.80
71563;DHT22;59391;52.504;13.438;2022-12-17T02:27:49;0.80;68.90
71563;DHT22;59391;52.504;13.438;2022-12-17T02:30:34;0.80;68.80
71563;DHT22;59391;52.504;13.438;2022-12-17T02:33:19;0.80;68.70
71563;DHT22;59391;52.504;13.438;2022-12-17T02:36:05;0.80;69.00
71563;DHT22;59391;52.504;13.438;2022-12-17T02:38:49;0.80;69.10
71563;DHT22;59391;52.504;13.438;2022-12-17T02:41:49;0.80;69.10
71563;DHT22;59391;52.504;13.438;2022-12-17T02:44:37;0.80;69.00
71563;DHT22;59391;52.504;13.438;2022-12-17T02:47:24;0.80;68.90
71563;DHT22;59391;52.504;13.438;2022-12-17T02:50:10;0.80;68.90
71563;DHT22;59391;52.504;13.438;2022-12-17T02:52:55;0.70;69.10
71563;DHT22;59391;52.504;13.438;2022-12-17T02:55:43;0.70;69.00
71563;DHT22;59391;52.504;13.438;2022-12-17T02:58:27;0.70;68.90
71563;DHT22;59391;52.504;13.438;2022-12-17T03:01:11;0.70;69.00
71563;DHT22;59391;52.504;13.438;2022-12-17T03:03:55;0.70;69.00
71563;DHT22;59391;52.504;13.438;2022-12-17T03:06:42;0.70;69.00
71563;DHT22;59391;52.504;13.438;2022-12-17T03:09:27;0.70;69.10
71563;DHT22;59391;52.504;13.438;2022-12-17T03:12:11;0.70;69.00
71563;DHT22;59391;52.504;13.438;2022-12-17T03:14:55;0.70;69.10
71563;DHT22;59391;52.504;13.438;2022-12-17T03:17:39;0.70;69.10
71563;DHT22;59391;52.504;13.438;2022-12-17T03:20:23;0.60;69.10
71563;DHT22;59391;52.504;13.438;2022-12-17T03:23:09;0.60;69.20
71563;DHT22;59391;52.504;13.438;2022-12-17T03:26:00;0.60;69.10
71563;DHT22;59391;52.504;13.438;2022-12-17T03:28:45;0.60;68.90
71563;DHT22;59391;52.504;13.438;2022-12-17T03:31:29;0.70;68.90
71563;DHT22;59391;52.504;13.438;2022-12-17T03:34:14;0.60;69.10
71563;DHT22;59391;52.504;13.438;2022-12-17T03:36:58;0.60;68.70
71563;DHT22;59391;52.504;13.438;2022-12-17T03:39:42;0.60;68.70
71563;DHT22;59391;52.504;13.438;2022-12-17T03:42:26;0.50;69.10
71563;DHT22;59391;52.504;13.438;2022-12-17T03:45:11;0.60;69.10
71563;DHT22;59391;52.504;13.438;2022-12-17T03:48:10;0.50;69.30
71563;DHT22;59391;52.504;13.438;2022-12-17T03:50:56;0.50;69.40
71563;DHT22;59391;52.504;13.438;2022-12-17T03:53:41;0.50;69.50
71563;DHT22;59391;52.504;13.438;2022-12-17T03:56:26;0.50;69.50
71563;DHT22;59391;52.504;13.438;2022-12-17T03:59:11;0.40;69.60
71563;DHT22;59391;52.504;13.438;2022-12-17T04:01:56;0.50;69.60
71563;DHT22;59391;52.504;13.438;2022-12-17T04:04:40;0.40;69.90
71563;DHT22;59391;52.504;13.438;2022-12-17T04:07:25;0.40;69.80
71563;DHT22;59391;52.504;13.438;2022-12-17T04:10:09;0.40;69.60
71563;DHT22;59391;52.504;13.438;2022-12-17T04:12:54;0.40;69.70
71563;DHT22;59391;52.504;13.438;2022-12-17T04:15:38;0.40;69.80
71563;DHT22;59391;52.504;13.438;2022-12-17T04:18:22;0.40;69.90
71563;DHT22;59391;52.504;13.438;2022-12-17T04:21:06;0.40;70.10
71563;DHT22;59391;52.504;13.438;2022-12-17T04:23:50;0.40;70.20
71563;DHT22;59391;52.504;13.438;2022-12-17T04:26:34;0.40;70.30
71563;DHT22;59391;52.504;13.438;2022-12-17T04:29:18;0.50;70.10
71563;DHT22;59391;52.504;13.438;2022-12-17T04:32:03;0.50;70.00
71563;DHT22;59391;52.504;13.438;2022-12-17T04:34:47;0.50;69.90
71563;DHT22;59391;52.504;13.438;2022-12-17T04:37:31;0.50;69.80
71563;DHT22;59391;52.504;13.438;2022-12-17T04:40:15;0.50;69.60
71563;DHT22;59391;52.504;13.438;2022-12-17T04:43:11;0.50;69.60
71563;DHT22;59391;52.504;13.438;2022-12-17T04:45:56;0.50;69.60
71563;DHT22;59391;52.504;13.438;2022-12-17T04:48:40;0.50;69.60
71563;DHT22;59391;52.504;13.438;2022-12-17T04:51:25;0.50;69.60
71563;DHT22;59391;52.504;13.438;2022-12-17T04:54:09;0.50;70.00
71563;DHT22;59391;52.504;13.438;2022-12-17T04:56:53;0.50;70.00
71563;DHT22;59391;52.504;13.438;2022-12-17T04:59:37;0.50;70.00
71563;DHT22;59391;52.504;13.438;2022-12-17T05:02:21;0.50;70.10
71563;DHT22;59391;52.504;13.438;2022-12-17T05:05:06;0.50;70.20
71563;DHT22;59391;52.504;13.438;2022-12-17T05:08:01;0.50;70.30
71563;DHT22;59391;52.504;13.438;2022-12-17T05:10:45;0.50;70.30
71563;DHT22;59391;52.504;13.438;2022-12-17T05:13:29;0.50;70.20
71563;DHT22;59391;52.504;13.438;2022-12-17T05:16:13;0.50;70.10
71563;DHT22;59391;52.504;13.438;2022-12-17T05:18:57;0.50;70.00
71563;DHT22;59391;52.504;13.438;2022-12-17T05:21:41;0.50;69.90
71563;DHT22;59391;52.504;13.438;2022-12-17T05:24:25;0.50;69.90
71563;DHT22;59391;52.504;13.438;2022-12-17T05:27:09;0.50;69.80
71563;DHT22;59391;52.504;13.438;2022-12-17T05:29:53;0.50;69.70
71563;DHT22;59391;52.504;13.438;2022-12-17T05:32:38;0.50;69.60
71563;DHT22;59391;52.504;13.438;2022-12-17T05:35:22;0.40;69.70
71563;DHT22;59391;52.504;13.438;2022-12-17T05:38:07;0.40;69.80
71563;DHT22;59391;52.504;13.438;2022-12-17T05:40:57;0.40;69.70
71563;DHT22;59391;52.504;13.438;2022-12-17T05:43:43;0.40;69.60
71563;DHT22;59391;52.504;13.438;2022-12-17T05:46:28;0.50;69.50
71563;DHT22;59391;52.504;13.438;2022-12-17T05:49:12;0.50;69.30
71563;DHT22;59391;52.504;13.438;2022-12-17T05:51:56;0.50;69.10
71563;DHT22;59391;52.504;13.438;2022-12-17T05:54:40;0.50;68.80
71563;DHT22;59391;52.504;13.438;2022-12-17T05:57:24;0.50;68.60
71563;DHT22;59391;52.504;13.438;2022-12-17T06:00:09;0.40;68.40
71563;DHT22;59391;52.504;13.438;2022-12-17T06:02:58;0.40;68.40
71563;DHT22;59391;52.504;13.438;2022-12-17T06:05:43;0.40;68.40
71563;DHT22;59391;52.504;13.438;2022-12-17T06:08:28;0.40;68.60
71563;DHT22;59391;52.504;13.438;2022-12-17T06:11:12;0.40;68.60
71563;DHT22;59391;52.504;13.438;2022-12-17T06:13:56;0.40;68.50
71563;DHT22;59391;52.504;13.438;2022-12-17T06:16:39;0.50;68.50
71563;DHT22;59391;52.504;13.438;2022-12-17T06:19:23;0.50;68.30
71563;DHT22;59391;52.504;13.438;2022-12-17T06:22:08;0.40;68.10
71563;DHT22;59391;52.504;13.438;2022-12-17T06:24:52;0.40;68.00
71563;DHT22;59391;52.504;13.438;2022-12-17T06:27:36;0.40;68.10
71563;DHT22;59391;52.504;13.438;2022-12-17T06:30:20;0.40;68.10
71563;DHT22;59391;52.504;13.438;2022-12-17T06:33:09;0.30;68.00
71563;DHT22;59391;52.504;13.438;2022-12-17T06:35:55;0.30;68.10
71563;DHT22;59391;52.504;13.438;2022-12-17T06:38:41;0.30;68.10
71563;DHT22;59391;52.504;13.438;2022-12-17T06:41:26;0.20;68.30
71563;DHT22;59391;52.504;13.438;2022-12-17T06:44:18;0.20;68.20
71563;DHT22;59391;52.504;13.438;2022-12-17T06:47:02;0.20;68.10
71563;DHT22;59391;52.504;13.438;2022-12-17T06:49:46;0.20;68.00
71563;DHT22;59391;52.504;13.438;2022-12-17T06:52:30;0.20;68.00
71563;DHT22;59391;52.504;13.438;2022-12-17T06:55:14;0.20;67.90
71563;DHT22;59391;52.504;13.438;2022-12-17T06:57:59;0.20;68.00
71563;DHT22;59391;52.504;13.438;2022-12-17T07:00:44;0.20;68.20
71563;DHT22;59391;52.504;13.438;2022-12-17T07:03:29;0.20;68.30
71563;DHT22;59391;52.504;13.438;2022-12-17T07:06:13;0.20;68.30
71563;DHT22;59391;52.504;13.438;2022-12-17T07:08:57;0.20;68.20
71563;DHT22;59391;52.504;13.438;2022-12-17T07:11:42;0.20;68.20
71563;DHT22;59391;52.504;13.438;2022-12-17T07:14:27;0.20;68.20
71563;DHT22;59391;52.504;13.438;2022-12-17T07:17:11;0.20;68.30
71563;DHT22;59391;52.504;13.438;2022-12-17T07:19:55;0.20;68.20
71563;DHT22;59391;52.504;13.438;2022-12-17T07:22:39;0.20;68.20
71563;DHT22;59391;52.504;13.438;2022-12-17T07:25:23;0.20;68.20
71563;DHT22;59391;52.504;13.438;2022-12-17T07:28:07;0.20;68.20
71563;DHT22;59391;52.504;13.438;2022-12-17T07:30:58;0.20;68.10
71563;DHT22;59391;52.504;13.438;2022-12-17T07:33:43;0.20;68.00
71563;DHT22;59391;52.504;13.438;2022-12-17T07:36:27;0.20;68.00
71563;DHT22;59391;52.504;13.438;2022-12-17T07:39:11;0.20;68.20
71563;DHT22;59391;52.504;13.438;2022-12-17T07:41:55;0.20;68.20
71563;DHT22;59391;52.504;13.438;2022-12-17T07:44:39;0.20;68.10
71563;DHT22;59391;52.504;13.438;2022-12-17T07:47:23;0.20;68.00
71563;DHT22;59391;52.504;13.438;2022-12-17T07:50:10;0.20;68.00
71563;DHT22;59391;52.504;13.438;2022-12-17T07:52:59;0.20;68.20
71563;DHT22;59391;52.504;13.438;2022-12-17T07:55:46;0.20;68.50
71563;DHT22;59391;52.504;13.438;2022-12-17T07:58:31;0.30;68.50
71563;DHT22;59391;52.504;13.438;2022-12-17T08:01:15;0.30;68.60
71563;DHT22;59391;52.504;13.438;2022-12-17T08:03:59;0.30;68.50
71563;DHT22;59391;52.504;13.438;2022-12-17T08:06:43;0.30;68.50
71563;DHT22;59391;52.504;13.438;2022-12-17T08:09:27;0.30;68.40
71563;DHT22;59391;52.504;13.438;2022-12-17T08:12:11;0.30;68.30
71563;DHT22;59391;52.504;13.438;2022-12-17T08:14:55;0.30;68.10
71563;DHT22;59391;52.504;13.438;2022-12-17T08:17:39;0.30;68.00
71563;DHT22;59391;52.504;13.438;2022-12-17T08:20:23;0.30;67.50
71563;DHT22;59391;52.504;13.438;2022-12-17T08:23:07;0.30;67.60
71563;DHT22;59391;52.504;13.438;2022-12-17T08:25:51;0.20;67.80
71563;DHT22;59391;52.504;13.438;2022-12-17T08:28:35;0.20;67.80
71563;DHT22;59391;52.504;13.438;2022-12-17T08:31:21;0.20;67.70
71563;DHT22;59391;52.504;13.438;2022-12-17T08:34:06;0.20;67.70
71563;DHT22;59391;52.504;13.438;2022-12-17T08:36:51;0.20;68.00
71563;DHT22;59391;52.504;13.438;2022-12-17T08:39:35;0.20;67.90
71563;DHT22;59391;52.504;13.438;2022-12-17T08:42:20;0.20;67.90
71563;DHT22;59391;52.504;13.438;2022-12-17T08:45:04;0.20;67.70
71563;DHT22;59391;52.504;13.438;2022-12-17T08:47:49;0.30;67.60
71563;DHT22;59391;52.504;13.438;2022-12-17T08:50:33;0.30;67.80
71563;DHT22;59391;52.504;13.438;2022-12-17T08:53:18;0.30;67.80
71563;DHT22;59391;52.504;13.438;2022-12-17T08:56:02;0.30;67.60
71563;DHT22;59391;52.504;13.438;2022-12-17T08:58:47;0.40;67.50
71563;DHT22;59391;52.504;13.438;2022-12-17T09:01:31;0.40;67.20
71563;DHT22;59391;52.504;13.438;2022-12-17T09:04:15;0.40;67.30
71563;DHT22;59391;52.504;13.438;2022-12-17T09:06:59;0.50;67.30
71563;DHT22;59391;52.504;13.438;2022-12-17T09:09:43;0.50;67.00
71563;DHT22;59391;52.504;13.438;2022-12-17T09:12:27;0.50;67.10
71563;DHT22;59391;52.504;13.438;2022-12-17T09:15:12;0.50;66.70
71563;DHT22;59391;52.504;13.438;2022-12-17T09:17:55;0.50;66.60
71563;DHT22;59391;52.504;13.438;2022-12-17T09:20:40;0.50;66.40
71563;DHT22;59391;52.504;13.438;2022-12-17T09:23:24;0.50;66.50
71563;DHT22;59391;52.504;13.438;2022-12-17T09:26:08;0.50;66.50
71563;DHT22;59391;52.504;13.438;2022-12-17T09:28:52;0.50;66.90
71563;DHT22;59391;52.504;13.438;2022-12-17T09:31:36;0.50;66.50
71563;DHT22;59391;52.504;13.438;2022-12-17T09:34:20;0.60;66.60
71563;DHT22;59391;52.504;13.438;2022-12-17T09:37:04;0.60;66.50
71563;DHT22;59391;52.504;13.438;2022-12-17T09:39:48;0.60;66.70
71563;DHT22;59391;52.504;13.438;2022-12-17T09:42:34;0.60;66.60
71563;DHT22;59391;52.504;13.438;2022-12-17T09:45:37;0.60;66.00
71563;DHT22;59391;52.504;13.438;2022-12-17T09:48:39;0.60;66.10
71563;DHT22;59391;52.504;13.438;2022-12-17T09:51:46;0.60;66.30
71563;DHT22;59391;52.504;13.438;2022-12-17T09:54:35;0.60;66.50
71563;DHT22;59391;52.504;13.438;2022-12-17T09:57:27;0.60;66.30
71563;DHT22;59391;52.504;13.438;2022-12-17T10:00:25;0.60;66.40
71563;DHT22;59391;52.504;13.438;2022-12-17T10:03:16;0.60;66.50
71563;DHT22;59391;52.504;13.438;2022-12-17T10:06:11;0.60;66.70
71563;DHT22;59391;52.504;13.438;2022-12-17T10:09:01;0.60;66.60
71563;DHT22;59391;52.504;13.438;2022-12-17T10:11:49;0.70;66.50
71563;DHT22;59391;52.504;13.438;2022-12-17T10:14:33;0.70;66.50
71563;DHT22;59391;52.504;13.438;2022-12-17T10:17:22;0.70;66.40
71563;DHT22;59391;52.504;13.438;2022-12-17T10:20:37;0.70;66.20
71563;DHT22;59391;52.504;13.438;2022-12-17T10:23:31;0.80;66.20
71563;DHT22;59391;52.504;13.438;2022-12-17T10:26:30;0.80;66.10
71563;DHT22;59391;52.504;13.438;2022-12-17T10:29:24;0.80;65.80
71563;DHT22;59391;52.504;13.438;2022-12-17T10:32:11;0.80;65.90
71563;DHT22;59391;52.504;13.438;2022-12-17T10:35:21;0.90;65.90
71563;DHT22;59391;52.504;13.438;2022-12-17T10:41:28;0.90;65.70
71563;DHT22;59391;52.504;13.438;2022-12-17T10:47:17;1.00;65.60
71563;DHT22;59391;52.504;13.438;2022-12-17T10:50:13;0.90;65.20
71563;DHT22;59391;52.504;13.438;2022-12-17T10:52:58;0.90;65.30
71563;DHT22;59391;52.504;13.438;2022-12-17T10:55:51;1.00;65.50
71563;DHT22;59391;52.504;13.438;2022-12-17T10:58:46;1.00;65.30
71563;DHT22;59391;52.504;13.438;2022-12-17T11:01:33;1.00;65.30
71563;DHT22;59391;52.504;13.438;2022-12-17T11:04:24;1.00;65.20
71563;DHT22;59391;52.504;13.438;2022-12-17T11:07:28;1.00;65.30
71563;DHT22;59391;52.504;13.438;2022-12-17T11:10:25;1.00;65.10
71563;DHT22;59391;52.504;13.438;2022-12-17T11:13:42;1.00;65.10
71563;DHT22;59391;52.504;13.438;2022-12-17T11:16:32;1.00;65.00
71563;DHT22;59391;52.504;13.438;2022-12-17T11:19:33;1.00;64.90
71563;DHT22;59391;52.504;13.438;2022-12-17T11:22:33;1.10;65.10
71563;DHT22;59391;52.504;13.438;2022-12-17T11:28:43;1.10;65.20
71563;DHT22;59391;52.504;13.438;2022-12-17T11:31:46;1.10;64.90
71563;DHT22;59391;52.504;13.438;2022-12-17T11:35:02;1.10;64.90
71563;DHT22;59391;52.504;13.438;2022-12-17T11:38:21;1.10;64.90
71563;DHT22;59391;52.504;13.438;2022-12-17T11:44:48;1.00;64.40
71563;DHT22;59391;52.504;13.438;2022-12-17T11:47:58;1.00;64.40
71563;DHT22;59391;52.504;13.438;2022-12-17T11:51:00;1.00;64.60
71563;DHT22;59391;52.504;13.438;2022-12-17T11:54:38;1.00;64.60
71563;DHT22;59391;52.504;13.438;2022-12-17T11:58:09;0.90;64.50
71563;DHT22;59391;52.504;13.438;2022-12-17T12:01:04;1.00;64.60
71563;DHT22;59391;52.504;13.438;2022-12-17T12:04:22;1.00;64.70
71563;DHT22;59391;52.504;13.438;2022-12-17T12:10:47;1.00;64.90
71563;DHT22;59391;52.504;13.438;2022-12-17T12:17:30;1.10;64.40
71563;DHT22;59391;52.504;13.438;2022-12-17T12:24:02;1.00;64.30
71563;DHT22;59391;52.504;13.438;2022-12-17T12:27:35;1.00;63.50
71563;DHT22;59391;52.504;13.438;2022-12-17T12:30:59;0.90;63.70
71563;DHT22;59391;52.504;13.438;2022-12-17T12:34:10;0.90;64.10
71563;DHT22;59391;52.504;13.438;2022-12-17T12:37:04;0.90;64.40
71563;DHT22;59391;52.504;13.438;2022-12-17T12:40:22;0.80;64.50
71563;DHT22;59391;52.504;13.438;2022-12-17T12:43:27;0.80;64.70
71563;DHT22;59391;52.504;13.438;2022-12-17T12:46:18;0.80;64.80
71563;DHT22;59391;52.504;13.438;2022-12-17T12:49:34;0.80;64.80
71563;DHT22;59391;52.504;13.438;2022-12-17T12:52:28;0.80;64.80
71563;DHT22;59391;52.504;13.438;2022-12-17T12:55:14;0.70;64.70
71563;DHT22;59391;52.504;13.438;2022-12-17T12:58:26;0.70;64.90
71563;DHT22;59391;52.504;13.438;2022-12-17T13:01:13;0.70;65.00
71563;DHT22;59391;52.504;13.438;2022-12-17T13:04:00;0.70;64.90
71563;DHT22;59391;52.504;13.438;2022-12-17T13:06:54;0.70;64.70
71563;DHT22;59391;52.504;13.438;2022-12-17T13:09:36;0.70;64.70
71563;DHT22;59391;52.504;13.438;2022-12-17T13:12:25;0.70;64.80
71563;DHT22;59391;52.504;13.438;2022-12-17T13:15:15;0.70;64.90
71563;DHT22;59391;52.504;13.438;2022-12-17T13:18:31;0.70;64.90
71563;DHT22;59391;52.504;13.438;2022-12-17T13:21:05;0.80;64.50
71563;DHT22;59391;52.504;13.438;2022-12-17T13:23:49;0.90;63.80
71563;DHT22;59391;52.504;13.438;2022-12-17T13:26:22;0.80;63.70
71563;DHT22;59391;52.504;13.438;2022-12-17T13:29:22;0.80;63.80
71563;DHT22;59391;52.504;13.438;2022-12-17T13:32:06;0.70;63.80
71563;DHT22;59391;52.504;13.438;2022-12-17T13:38:19;0.60;64.80
71563;DHT22;59391;52.504;13.438;2022-12-17T13:41:06;0.50;65.40
71563;DHT22;59391;52.504;13.438;2022-12-17T13:43:41;0.50;65.70
71563;DHT22;59391;52.504;13.438;2022-12-17T13:46:26;0.50;65.80
71563;DHT22;59391;52.504;13.438;2022-12-17T13:49:28;0.50;65.90
71563;DHT22;59391;52.504;13.438;2022-12-17T13:52:06;0.50;65.70
71563;DHT22;59391;52.504;13.438;2022-12-17T13:54:41;0.50;65.60
71563;DHT22;59391;52.504;13.438;2022-12-17T13:59:56;0.50;65.60
71563;DHT22;59391;52.504;13.438;2022-12-17T14:02:29;0.50;65.50
71563;DHT22;59391;52.504;13.438;2022-12-17T14:05:02;0.50;65.40
71563;DHT22;59391;52.504;13.438;2022-12-17T14:07:33;0.50;65.40
71563;DHT22;59391;52.504;13.438;2022-12-17T14:10:03;0.50;65.20
71563;DHT22;59391;52.504;13.438;2022-12-17T14:12:30;0.50;65.10
71563;DHT22;59391;52.504;13.438;2022-12-17T14:15:00;0.50;65.30
71563;DHT22;59391;52.504;13.438;2022-12-17T14:17:43;0.50;65.10
71563;DHT22;59391;52.504;13.438;2022-12-17T14:20:16;0.50;65.10
71563;DHT22;59391;52.504;13.438;2022-12-17T14:22:48;0.40;65.10
71563;DHT22;59391;52.504;13.438;2022-12-17T14:25:21;0.40;65.20
71563;DHT22;59391;52.504;13.438;2022-12-17T14:27:58;0.40;65.00
71563;DHT22;59391;52.504;13.438;2022-12-17T14:30:41;0.50;64.30
71563;DHT22;59391;52.504;13.438;2022-12-17T14:33:30;0.40;64.00
71563;DHT22;59391;52.504;13.438;2022-12-17T14:36:00;0.40;63.90
71563;DHT22;59391;52.504;13.438;2022-12-17T14:39:03;0.30;64.00
71563;DHT22;59391;52.504;13.438;2022-12-17T14:41:43;0.20;64.20
71563;DHT22;59391;52.504;13.438;2022-12-17T14:44:29;0.10;64.60
71563;DHT22;59391;52.504;13.438;2022-12-17T14:47:22;0.00;65.00
71563;DHT22;59391;52.504;13.438;2022-12-17T14:49:55;0.00;65.40
71563;DHT22;59391;52.504;13.438;2022-12-17T14:52:44;0.00;65.70
71563;DHT22;59391;52.504;13.438;2022-12-17T14:55:28;0.00;66.10
71563;DHT22;59391;52.504;13.438;2022-12-17T14:58:15;-0.10;66.20
71563;DHT22;59391;52.504;13.438;2022-12-17T15:00:51;-0.10;66.50
71563;DHT22;59391;52.504;13.438;2022-12-17T15:03:24;-0.10;66.40
71563;DHT22;59391;52.504;13.438;2022-12-17T15:06:01;0.00;66.40
71563;DHT22;59391;52.504;13.438;2022-12-17T15:08:35;0.00;66.30
71563;DHT22;59391;52.504;13.438;2022-12-17T15:11:03;0.00;66.30
71563;DHT22;59391;52.504;13.438;2022-12-17T15:13:29;0.00;66.20
71563;DHT22;59391;52.504;13.438;2022-12-17T15:15:58;0.00;66.30
71563;DHT22;59391;52.504;13.438;2022-12-17T15:18:24;0.00;66.30
71563;DHT22;59391;52.504;13.438;2022-12-17T15:20:49;0.00;66.40
71563;DHT22;59391;52.504;13.438;2022-12-17T15:23:19;0.00;66.40
71563;DHT22;59391;52.504;13.438;2022-12-17T15:25:48;0.00;66.10
71563;DHT22;59391;52.504;13.438;2022-12-17T15:28:16;0.00;65.70
71563;DHT22;59391;52.504;13.438;2022-12-17T15:30:43;0.10;65.30
71563;DHT22;59391;52.504;13.438;2022-12-17T15:33:09;0.00;65.40
71563;DHT22;59391;52.504;13.438;2022-12-17T15:35:36;0.00;65.70
71563;DHT22;59391;52.504;13.438;2022-12-17T15:38:03;0.00;66.00
71563;DHT22;59391;52.504;13.438;2022-12-17T15:40:29;-0.10;66.20
71563;DHT22;59391;52.504;13.438;2022-12-17T15:42:55;-0.20;66.30
71563;DHT22;59391;52.504;13.438;2022-12-17T15:45:44;-0.10;66.50
71563;DHT22;59391;52.504;13.438;2022-12-17T15:48:13;-0.10;66.50
71563;DHT22;59391;52.504;13.438;2022-12-17T15:50:43;-0.10;66.30
71563;DHT22;59391;52.504;13.438;2022-12-17T15:53:09;-0.10;66.10
71563;DHT22;59391;52.504;13.438;2022-12-17T15:55:36;-0.10;66.00
71563;DHT22;59391;52.504;13.438;2022-12-17T15:58:03;-0.10;66.20
71563;DHT22;59391;52.504;13.438;2022-12-17T16:00:30;-0.20;66.10
71563;DHT22;59391;52.504;13.438;2022-12-17T16:02:55;-0.20;66.30
71563;DHT22;59391;52.504;13.438;2022-12-17T16:05:21;-0.20;66.30
71563;DHT22;59391;52.504;13.438;2022-12-17T16:07:48;-0.30;66.50
71563;DHT22;59391;52.504;13.438;2022-12-17T16:10:17;-0.30;66.50
71563;DHT22;59391;52.504;13.438;2022-12-17T16:12:43;-0.30;66.50
71563;DHT22;59391;52.504;13.438;2022-12-17T16:15:10;-0.40;66.50
71563;DHT22;59391;52.504;13.438;2022-12-17T16:17:37;-0.40;66.60
71563;DHT22;59391;52.504;13.438;2022-12-17T16:20:04;-0.40;66.70
71563;DHT22;59391;52.504;13.438;2022-12-17T16:22:30;-0.50;67.20
71563;DHT22;59391;52.504;13.438;2022-12-17T16:24:56;-0.50;67.40
71563;DHT22;59391;52.504;13.438;2022-12-17T16:27:22;-0.50;67.80
71563;DHT22;59391;52.504;13.438;2022-12-17T16:29:48;-0.50;67.90
71563;DHT22;59391;52.504;13.438;2022-12-17T16:32:14;-0.50;67.80
71563;DHT22;59391;52.504;13.438;2022-12-17T16:34:41;-0.50;67.70
71563;DHT22;59391;52.504;13.438;2022-12-17T16:37:07;-0.50;67.70
71563;DHT22;59391;52.504;13.438;2022-12-17T16:39:32;-0.50;67.70
71563;DHT22;59391;52.504;13.438;2022-12-17T16:41:58;-0.40;67.10
71563;DHT22;59391;52.504;13.438;2022-12-17T16:44:24;-0.40;66.70
71563;DHT22;59391;52.504;13.438;2022-12-17T16:46:49;-0.50;66.50
71563;DHT22;59391;52.504;13.438;2022-12-17T16:49:18;-0.50;66.70
71563;DHT22;59391;52.504;13.438;2022-12-17T16:51:48;-0.60;67.00
71563;DHT22;59391;52.504;13.438;2022-12-17T16:54:20;-0.60;67.40
71563;DHT22;59391;52.504;13.438;2022-12-17T16:56:47;-0.60;67.50
71563;DHT22;59391;52.504;13.438;2022-12-17T16:59:15;-0.60;67.50
71563;DHT22;59391;52.504;13.438;2022-12-17T17:01:44;-0.60;67.70
71563;DHT22;59391;52.504;13.438;2022-12-17T17:04:13;-0.60;67.80
71563;DHT22;59391;52.504;13.438;2022-12-17T17:06:45;-0.60;67.90
71563;DHT22;59391;52.504;13.438;2022-12-17T17:09:16;-0.70;67.90
71563;DHT22;59391;52.504;13.438;2022-12-17T17:11:42;-0.70;68.10
71563;DHT22;59391;52.504;13.438;2022-12-17T17:14:09;-0.70;68.20
71563;DHT22;59391;52.504;13.438;2022-12-17T17:16:35;-0.70;67.90
71563;DHT22;59391;52.504;13.438;2022-12-17T17:19:02;-0.70;67.90
71563;DHT22;59391;52.504;13.438;2022-12-17T17:21:37;-0.70;67.90
71563;DHT22;59391;52.504;13.438;2022-12-17T17:24:10;-0.70;68.10
71563;DHT22;59391;52.504;13.438;2022-12-17T17:26:38;-0.80;68.00
71563;DHT22;59391;52.504;13.438;2022-12-17T17:29:05;-0.80;68.10
71563;DHT22;59391;52.504;13.438;2022-12-17T17:31:32;-0.80;67.90
71563;DHT22;59391;52.504;13.438;2022-12-17T17:34:06;-0.90;68.00
71563;DHT22;59391;52.504;13.438;2022-12-17T17:36:33;-0.90;68.00
71563;DHT22;59391;52.504;13.438;2022-12-17T17:38:59;-1.00;68.00
71563;DHT22;59391;52.504;13.438;2022-12-17T17:41:28;-1.00;68.30
71563;DHT22;59391;52.504;13.438;2022-12-17T17:43:58;-1.10;68.60
71563;DHT22;59391;52.504;13.438;2022-12-17T17:46:26;-1.00;68.80
71563;DHT22;59391;52.504;13.438;2022-12-17T17:48:56;-1.00;68.90